Time;durP1;ratioP1;P1;durP2;ratioP2;P2;SDS_P1;SDS_P2;PMS_P1;PMS_P2;Temp;Humidity;BMP_temperature;BMP_pressure;BME280_temperature;BME280_humidity;BME280_pressure;Samples;Min_cycle;Max_cycle;Signal;HPM_P1;HPM_P2
2022/12/26 00:02:59;;;;;;;14.77;11.33;;;4.90;99.90;;;;;;6300829;28;20469;-63
2022/12/26 00:06:03;;;;;;;14.27;11.50;;;4.80;99.90;;;;;;6300633;28;20598;-63
2022/12/26 00:09:07;;;;;;;11.53;10.30;;;4.80;99.90;;;;;;6300708;28;20614;-63
2022/12/26 00:12:10;;;;;;;13.37;11.67;;;4.80;99.90;;;;;;6300640;28;20991;-63
2022/12/26 00:15:13;;;;;;;14.50;12.50;;;4.80;99.90;;;;;;6299474;28;20481;-65
2022/12/26 00:18:18;;;;;;;16.23;12.47;;;4.80;99.90;;;;;;6290654;28;20485;-64
2022/12/26 00:21:22;;;;;;;16.50;14.47;;;4.90;99.90;;;;;;6262351;28;20482;-64
2022/12/26 00:24:25;;;;;;;17.13;12.87;;;4.90;99.90;;;;;;6275540;28;20797;-64
2022/12/26 00:27:29;;;;;;;16.33;13.37;;;4.80;99.90;;;;;;6275593;28;20475;-63
2022/12/26 00:30:32;;;;;;;17.90;14.90;;;4.70;99.90;;;;;;6274944;28;20945;-64
2022/12/26 00:33:37;;;;;;;18.47;13.00;;;4.70;99.90;;;;;;6275313;28;20485;-63
2022/12/26 00:36:41;;;;;;;13.87;11.70;;;4.70;99.90;;;;;;6275370;28;20466;-63
2022/12/26 00:39:44;;;;;;;14.90;12.00;;;4.70;99.90;;;;;;6250970;28;20459;-63
2022/12/26 00:42:47;;;;;;;14.37;11.47;;;4.70;99.90;;;;;;6275236;28;20855;-64
2022/12/26 00:45:50;;;;;;;17.93;12.17;;;4.70;99.90;;;;;;6274966;28;20442;-63
2022/12/26 00:48:55;;;;;;;14.00;12.57;;;4.60;99.90;;;;;;6275152;28;20489;-63
2022/12/26 00:51:58;;;;;;;15.03;13.00;;;4.50;99.90;;;;;;6275249;28;20443;-63
2022/12/26 00:55:01;;;;;;;14.50;12.97;;;4.50;99.90;;;;;;6277397;28;20448;-64
2022/12/26 00:58:04;;;;;;;17.60;14.07;;;4.50;99.90;;;;;;6280078;28;20473;-63
2022/12/26 01:01:14;;;;;;;19.63;12.70;;;4.50;99.90;;;;;;6280308;28;20465;-63
2022/12/26 01:04:19;;;;;;;16.43;13.43;;;4.40;99.90;;;;;;6280243;28;20929;-63
2022/12/26 01:07:22;;;;;;;14.53;12.40;;;4.40;99.90;;;;;;6279979;28;20482;-63
2022/12/26 01:10:26;;;;;;;17.50;14.00;;;4.30;99.90;;;;;;6280097;28;20470;-63
2022/12/26 01:13:30;;;;;;;15.90;14.40;;;4.30;99.90;;;;;;6279155;28;20482;-63
2022/12/26 01:16:33;;;;;;;15.33;13.20;;;4.30;99.90;;;;;;6279427;28;20481;-64
2022/12/26 01:19:38;;;;;;;17.00;13.70;;;4.30;99.90;;;;;;6299876;28;20465;-63
2022/12/26 01:22:41;;;;;;;18.43;14.10;;;4.40;99.90;;;;;;6304183;28;20469;-63
2022/12/26 01:25:44;;;;;;;20.20;14.73;;;4.40;99.90;;;;;;6304908;28;20480;-64
2022/12/26 01:29:09;;;;;;;16.70;13.37;;;4.30;99.90;;;;;;6304357;28;20542;-63
2022/12/26 01:32:12;;;;;;;18.13;15.37;;;4.10;99.90;;;;;;6305313;28;20480;-63
2022/12/26 01:35:17;;;;;;;17.60;14.20;;;4.00;99.90;;;;;;6315416;28;20484;-63
2022/12/26 01:38:20;;;;;;;15.10;12.60;;;3.90;99.90;;;;;;6306299;28;20477;-63
2022/12/26 01:41:23;;;;;;;14.83;12.83;;;4.00;99.90;;;;;;6303915;28;20473;-63
2022/12/26 01:44:58;;;;;;;13.47;11.50;;;4.00;99.90;;;;;;6304039;28;20480;-63
2022/12/26 01:48:05;;;;;;;15.47;12.90;;;4.00;99.90;;;;;;6304043;28;20473;-63
2022/12/26 01:51:10;;;;;;;14.40;11.93;;;4.00;99.90;;;;;;6303930;28;20488;-63
2022/12/26 01:54:14;;;;;;;14.27;12.77;;;4.00;99.90;;;;;;6304026;28;20983;-63
2022/12/26 01:57:42;;;;;;;21.03;13.40;;;4.00;99.90;;;;;;6304254;28;20972;-63
2022/12/26 02:00:45;;;;;;;17.57;12.83;;;4.00;99.90;;;;;;6281690;28;20485;-64
2022/12/26 02:07:11;;;;;;;13.93;12.10;;;3.80;99.90;;;;;;6305710;28;20526;-63
2022/12/26 02:10:17;;;;;;;13.47;11.63;;;3.80;99.90;;;;;;6303618;28;20478;-63
2022/12/26 02:13:21;;;;;;;16.73;12.00;;;3.90;99.90;;;;;;6303525;28;20484;-63
2022/12/26 02:16:24;;;;;;;13.07;11.67;;;4.00;99.90;;;;;;6303179;28;20473;-63
2022/12/26 02:19:39;;;;;;;14.60;11.80;;;4.10;99.90;;;;;;6296908;28;20551;-63
2022/12/26 02:23:23;;;;;;;13.60;11.90;;;4.10;99.90;;;;;;6278151;28;20845;-63
2022/12/26 02:26:47;;;;;;;15.47;11.93;;;4.10;99.90;;;;;;6278213;28;20482;-63
2022/12/26 02:30:32;;;;;;;15.83;11.60;;;4.10;99.90;;;;;;6278144;28;20494;-64
2022/12/26 02:33:44;;;;;;;13.87;10.93;;;4.10;99.90;;;;;;6278373;28;20470;-64
2022/12/26 02:37:05;;;;;;;12.60;10.77;;;4.10;99.90;;;;;;6278315;28;20454;-63
2022/12/26 02:40:41;;;;;;;13.80;10.90;;;4.10;99.90;;;;;;6278107;28;20478;-64
2022/12/26 02:43:54;;;;;;;12.17;10.83;;;4.10;99.90;;;;;;6278231;28;20477;-63
2022/12/26 02:47:08;;;;;;;11.50;10.10;;;4.00;99.90;;;;;;6277940;28;20810;-64
2022/12/26 03:14:17;;;;;;;9.73;7.97;;;4.00;99.90;;;;;;6301887;28;20469;-63
2022/12/26 03:17:25;;;;;;;10.43;8.00;;;3.90;99.90;;;;;;6299464;28;20473;-63
2022/12/26 03:20:33;;;;;;;9.80;8.80;;;3.90;99.90;;;;;;6277063;28;20467;-63
2022/12/26 03:23:39;;;;;;;7.87;7.07;;;3.90;99.90;;;;;;6277038;28;20470;-64
2022/12/26 03:26:48;;;;;;;8.37;7.57;;;3.90;99.90;;;;;;6277034;28;20473;-63
2022/12/26 03:36:43;;;;;;;11.40;9.07;;;3.70;99.90;;;;;;6276470;28;20532;-62
2022/12/26 04:45:47;;;;;;;8.70;6.93;;;3.60;99.90;;;;;;6275180;28;20863;-63
2022/12/26 04:52:15;;;;;;;8.30;6.23;;;3.60;99.90;;;;;;6300044;28;20539;-63
2022/12/26 04:55:18;;;;;;;7.07;5.60;;;3.60;99.90;;;;;;6300464;28;20476;-63
2022/12/26 04:58:23;;;;;;;6.77;6.07;;;3.70;99.90;;;;;;6300423;28;20473;-63
2022/12/26 05:11:46;;;;;;;11.27;6.90;;;3.60;99.90;;;;;;6299402;28;20481;-62
2022/12/26 05:14:50;;;;;;;7.23;6.53;;;3.60;99.90;;;;;;6299655;28;20991;-63
2022/12/26 05:31:22;;;;;;;11.13;9.17;;;3.50;99.90;;;;;;6274971;28;20477;-62
2022/12/26 05:34:26;;;;;;;8.97;8.17;;;3.50;99.90;;;;;;6274949;28;20524;-62
2022/12/26 05:37:29;;;;;;;12.30;10.73;;;3.50;99.90;;;;;;6265658;28;20501;-62
2022/12/26 05:40:32;;;;;;;15.87;12.87;;;3.50;99.90;;;;;;6275804;28;20480;-62
2022/12/26 05:43:35;;;;;;;13.60;12.30;;;3.60;99.90;;;;;;6279050;28;20466;-63
2022/12/26 05:46:39;;;;;;;11.57;10.47;;;3.60;99.90;;;;;;6279303;28;20477;-63
2022/12/26 05:49:44;;;;;;;13.40;10.57;;;3.50;99.90;;;;;;6278558;28;20892;-63
2022/12/26 05:52:47;;;;;;;10.93;9.93;;;3.50;99.90;;;;;;6278732;28;20953;-63
2022/12/26 05:55:50;;;;;;;12.67;11.47;;;3.50;99.90;;;;;;6278523;28;20957;-62
2022/12/26 05:58:58;;;;;;;10.90;9.80;;;3.60;99.90;;;;;;6278540;28;20485;-62
2022/12/26 06:02:01;;;;;;;10.53;9.03;;;3.60;99.90;;;;;;6279303;28;20482;-62
2022/12/26 06:05:06;;;;;;;10.93;8.80;;;3.50;99.90;;;;;;6278980;28;20477;-63
2022/12/26 06:08:09;;;;;;;8.80;7.57;;;3.50;99.90;;;;;;6278485;28;20484;-63
2022/12/26 06:11:13;;;;;;;8.60;7.80;;;3.50;99.90;;;;;;6283598;28;20490;-62
2022/12/26 06:14:17;;;;;;;8.53;7.70;;;3.50;99.90;;;;;;6288815;28;20474;-63
2022/12/26 06:17:20;;;;;;;9.23;8.30;;;3.50;99.90;;;;;;6277370;28;20477;-63
2022/12/26 06:20:24;;;;;;;9.97;8.03;;;3.40;99.90;;;;;;6253774;28;20477;-63
2022/12/26 06:23:27;;;;;;;9.87;8.80;;;3.50;99.90;;;;;;6253640;28;20476;-62
2022/12/26 06:26:31;;;;;;;10.67;9.50;;;3.50;99.90;;;;;;6253495;28;20527;-62
2022/12/26 06:29:34;;;;;;;10.40;9.07;;;3.50;99.90;;;;;;6252942;28;20832;-63
2022/12/26 06:32:37;;;;;;;12.17;11.10;;;3.50;99.90;;;;;;6252937;28;20482;-63
2022/12/26 06:35:41;;;;;;;10.63;9.57;;;3.50;99.90;;;;;;6253151;28;20478;-63
2022/12/26 06:38:45;;;;;;;9.43;8.63;;;3.50;99.90;;;;;;6252796;28;20760;-63
2022/12/26 06:41:48;;;;;;;9.57;8.57;;;3.50;99.90;;;;;;6252905;28;20467;-63
2022/12/26 06:44:51;;;;;;;10.30;9.20;;;3.50;99.90;;;;;;6252707;28;20492;-63
2022/12/26 06:47:54;;;;;;;8.53;7.80;;;3.50;99.90;;;;;;6252374;28;20777;-63
2022/12/26 06:51:03;;;;;;;9.27;8.37;;;3.40;99.90;;;;;;6252649;28;20475;-63
2022/12/26 06:54:07;;;;;;;8.27;7.40;;;3.40;99.90;;;;;;6251414;28;20467;-63
2022/12/26 06:57:10;;;;;;;9.40;7.50;;;3.50;99.90;;;;;;6252380;28;20792;-64
2022/12/26 07:00:15;;;;;;;9.33;8.00;;;3.50;99.90;;;;;;6252485;28;20475;-63
2022/12/26 07:03:18;;;;;;;10.43;9.40;;;3.50;99.90;;;;;;6252292;28;20463;-64
2022/12/26 07:06:25;;;;;;;8.20;7.40;;;3.60;99.90;;;;;;6252354;28;20467;-63
2022/12/26 07:09:28;;;;;;;11.37;8.00;;;3.70;99.90;;;;;;6252315;28;20954;-63
2022/12/26 07:12:36;;;;;;;8.67;7.87;;;3.80;99.90;;;;;;6251934;28;20483;-63
2022/12/26 07:15:39;;;;;;;12.33;8.90;;;3.80;99.90;;;;;;6251966;28;20570;-62
2022/12/26 07:18:42;;;;;;;9.20;8.37;;;3.90;99.90;;;;;;6264883;28;20470;-62
2022/12/26 07:21:47;;;;;;;9.57;8.40;;;3.90;99.90;;;;;;6301137;28;20450;-62
2022/12/26 07:24:50;;;;;;;9.93;8.93;;;4.00;99.90;;;;;;6301891;28;20438;-62
2022/12/26 07:27:53;;;;;;;9.97;8.77;;;4.00;99.90;;;;;;6301435;28;20488;-62
2022/12/26 07:30:58;;;;;;;12.10;9.90;;;4.10;99.90;;;;;;6301534;28;20456;-62
2022/12/26 07:34:02;;;;;;;9.43;8.37;;;4.10;99.90;;;;;;6301638;28;20923;-63
2022/12/26 07:37:06;;;;;;;10.87;8.20;;;4.30;99.90;;;;;;6301287;28;20461;-63
2022/12/26 07:40:11;;;;;;;10.70;7.70;;;4.40;99.90;;;;;;6301713;28;20528;-63
2022/12/26 07:43:14;;;;;;;13.40;9.17;;;4.40;99.90;;;;;;6301271;28;20477;-63
2022/12/26 07:46:17;;;;;;;14.73;13.33;;;4.50;99.90;;;;;;6301472;28;20477;-63
2022/12/26 07:49:20;;;;;;;11.60;10.50;;;4.60;99.90;;;;;;6300888;28;20485;-63
2022/12/26 07:52:25;;;;;;;11.97;10.17;;;4.70;99.90;;;;;;6300955;28;20466;-63
2022/12/26 07:55:28;;;;;;;12.73;10.60;;;4.80;99.90;;;;;;6301244;28;20477;-63
2022/12/26 07:58:32;;;;;;;10.87;9.77;;;4.80;99.90;;;;;;6300920;28;20477;-63
2022/12/26 08:01:35;;;;;;;12.73;11.47;;;4.80;99.90;;;;;;6300212;28;20824;-63
2022/12/26 08:04:38;;;;;;;9.80;8.93;;;4.90;99.90;;;;;;6300640;28;20515;-63
2022/12/26 08:07:43;;;;;;;11.67;9.97;;;5.00;99.90;;;;;;6299850;28;20511;-63
2022/12/26 08:10:46;;;;;;;10.90;9.80;;;5.10;99.90;;;;;;6300120;28;20480;-63
2022/12/26 08:13:49;;;;;;;11.57;10.47;;;5.20;99.90;;;;;;6302330;28;20477;-63
2022/12/26 08:16:53;;;;;;;11.13;9.50;;;5.30;99.90;;;;;;6301857;28;20469;-63
2022/12/26 08:19:56;;;;;;;10.17;9.23;;;5.30;99.90;;;;;;6279864;28;20480;-63
2022/12/26 08:23:00;;;;;;;10.90;9.80;;;5.40;99.90;;;;;;6277490;28;20481;-63
2022/12/26 08:26:08;;;;;;;11.10;9.90;;;5.60;99.90;;;;;;6279880;28;20548;-63
2022/12/26 08:29:11;;;;;;;13.03;11.67;;;5.70;99.90;;;;;;6282149;28;20481;-63
2022/12/26 08:32:15;;;;;;;10.57;9.57;;;5.80;99.90;;;;;;6284017;28;20982;-63
2022/12/26 08:35:18;;;;;;;10.87;9.77;;;5.80;99.90;;;;;;6279053;28;20478;-63
2022/12/26 08:38:23;;;;;;;15.23;11.33;;;5.90;99.90;;;;;;6275876;28;20561;-63
2022/12/26 08:41:33;;;;;;;12.60;9.97;;;6.00;99.90;;;;;;6275397;28;20472;-63
2022/12/26 08:44:36;;;;;;;12.37;11.13;;;6.10;99.90;;;;;;6265922;28;20836;-64
2022/12/26 08:47:39;;;;;;;10.70;9.80;;;6.30;99.90;;;;;;6274776;28;20492;-64
2022/12/26 08:50:43;;;;;;;14.97;12.17;;;6.50;99.90;;;;;;6274294;28;20547;-64
2022/12/26 08:53:49;;;;;;;13.33;11.40;;;6.60;99.90;;;;;;6274585;28;20485;-63
2022/12/26 08:56:52;;;;;;;13.20;11.43;;;6.70;99.90;;;;;;6274445;28;20477;-64
2022/12/26 08:59:55;;;;;;;12.97;11.07;;;6.80;99.90;;;;;;6274421;28;20477;-63
2022/12/26 09:02:59;;;;;;;12.80;11.30;;;7.00;99.90;;;;;;6274411;28;20481;-63
2022/12/26 09:06:03;;;;;;;10.90;9.80;;;7.10;99.90;;;;;;6274779;28;20903;-63
2022/12/26 09:09:11;;;;;;;14.80;10.70;;;7.30;99.90;;;;;;6274627;28;20478;-64
2022/12/26 09:12:14;;;;;;;16.17;12.70;;;7.50;99.90;;;;;;6274560;28;20481;-63
2022/12/26 09:15:17;;;;;;;13.13;10.47;;;7.70;99.90;;;;;;6275055;28;20989;-64
2022/12/26 09:18:21;;;;;;;14.70;12.87;;;7.90;99.90;;;;;;6289270;28;20483;-65
2022/12/26 09:21:25;;;;;;;24.50;14.73;;;8.00;99.90;;;;;;6304355;28;20477;-64
2022/12/26 09:24:29;;;;;;;12.87;11.57;;;8.10;99.90;;;;;;6304257;28;20939;-64
2022/12/26 09:27:33;;;;;;;14.57;12.63;;;8.20;99.90;;;;;;6304187;28;20480;-64
2022/12/26 09:30:37;;;;;;;12.13;10.63;;;8.40;99.90;;;;;;6303998;28;20480;-64
2022/12/26 09:33:41;;;;;;;17.03;12.03;;;8.70;99.90;;;;;;6303809;28;20976;-64
2022/12/26 09:36:44;;;;;;;14.90;13.57;;;8.90;99.90;;;;;;6304160;28;20464;-64
2022/12/26 09:39:49;;;;;;;13.57;12.17;;;9.10;99.90;;;;;;6303454;28;20461;-63
2022/12/26 09:43:02;;;;;;;15.33;13.03;;;9.40;99.90;;;;;;6304055;28;20456;-63
2022/12/26 09:46:16;;;;;;;46.27;26.87;;;9.50;99.90;;;;;;6294523;28;20441;-63
2022/12/26 09:49:23;;;;;;;17.70;12.50;;;9.60;99.90;;;;;;6303451;28;20497;-63
2022/12/26 09:52:37;;;;;;;14.07;12.63;;;9.70;99.90;;;;;;6303639;28;20531;-62
2022/12/26 09:55:46;;;;;;;16.97;14.73;;;9.90;99.90;;;;;;6303351;28;20469;-64
2022/12/26 09:58:53;;;;;;;13.27;12.07;;;10.00;99.90;;;;;;6303480;28;20473;-64
2022/12/26 10:01:56;;;;;;;15.80;13.00;;;10.10;99.90;;;;;;6303431;28;20965;-64
2022/12/26 10:05:00;;;;;;;15.00;12.57;;;10.10;99.90;;;;;;6303147;28;21002;-64
2022/12/26 10:08:16;;;;;;;14.33;12.17;;;10.10;99.90;;;;;;6303338;28;20479;-64
2022/12/26 10:11:27;;;;;;;13.97;12.57;;;10.20;99.90;;;;;;6303020;28;20958;-64
2022/12/26 10:14:40;;;;;;;10.07;9.07;;;10.20;99.90;;;;;;6303369;28;20469;-64
2022/12/26 10:17:50;;;;;;;9.10;8.20;;;10.30;99.90;;;;;;6299615;28;20500;-63
2022/12/26 10:21:21;;;;;;;9.33;8.43;;;10.50;99.90;;;;;;6280158;28;20473;-63
2022/12/26 10:24:27;;;;;;;8.17;6.80;;;10.60;99.90;;;;;;6279353;28;20477;-63
2022/12/26 10:27:41;;;;;;;9.90;6.47;;;10.70;99.90;;;;;;6279463;28;20469;-64
2022/12/26 10:30:46;;;;;;;6.20;5.60;;;10.90;99.90;;;;;;6277751;28;20470;-63
2022/12/26 10:33:56;;;;;;;7.07;5.53;;;11.00;99.90;;;;;;6277734;28;20482;-63
2022/12/26 10:37:02;;;;;;;6.80;4.90;;;11.20;99.90;;;;;;6278066;28;20496;-63
2022/12/26 10:40:16;;;;;;;7.80;5.70;;;11.40;99.50;;;;;;6277417;28;20847;-62
2022/12/26 10:43:28;;;;;;;12.13;11.03;;;11.70;98.60;;;;;;6277445;28;20470;-62
2022/12/26 10:47:06;;;;;;;13.70;12.30;;;11.60;98.70;;;;;;6277493;28;20482;-62
2022/12/26 10:50:16;;;;;;;14.67;12.40;;;11.20;99.30;;;;;;6268536;28;20930;-63
2022/12/26 10:53:25;;;;;;;14.23;12.87;;;10.90;99.70;;;;;;6277459;28;20984;-63
2022/12/26 10:56:31;;;;;;;14.03;12.37;;;10.60;99.90;;;;;;6277926;28;20942;-63
2022/12/26 10:59:41;;;;;;;11.43;10.33;;;10.50;99.90;;;;;;6277494;28;20946;-63
2022/12/26 11:02:45;;;;;;;14.40;13.00;;;10.50;99.90;;;;;;6282891;28;20466;-63
2022/12/26 11:05:51;;;;;;;16.20;13.23;;;10.50;99.90;;;;;;6284774;28;20466;-63
2022/12/26 11:09:30;;;;;;;13.87;12.30;;;10.60;99.90;;;;;;6277821;28;20545;-63
2022/12/26 11:12:40;;;;;;;13.60;12.13;;;10.80;99.90;;;;;;6276551;28;20497;-63
2022/12/26 11:15:50;;;;;;;12.30;11.00;;;10.80;99.90;;;;;;6277129;28;20470;-63
2022/12/26 11:18:54;;;;;;;11.30;10.20;;;10.60;99.90;;;;;;6290856;28;20544;-63
2022/12/26 11:22:24;;;;;;;12.30;10.23;;;11.30;99.90;;;;;;6301554;28;20448;-63
2022/12/26 11:25:29;;;;;;;13.00;10.20;;;12.10;98.50;;;;;;6301286;28;20519;-64
2022/12/26 11:28:35;;;;;;;11.17;10.10;;;12.40;97.60;;;;;;6301514;28;20465;-63
2022/12/26 11:31:42;;;;;;;11.20;10.20;;;12.70;97.00;;;;;;6301768;28;20477;-63
2022/12/26 11:34:47;;;;;;;12.83;10.83;;;13.00;96.40;;;;;;6301109;28;20540;-63
2022/12/26 11:37:55;;;;;;;11.70;10.60;;;13.20;96.10;;;;;;6300543;28;20469;-63
2022/12/26 11:44:24;;;;;;;10.20;9.27;;;13.20;95.40;;;;;;6300397;28;20799;-63
2022/12/26 11:47:29;;;;;;;11.10;10.00;;;13.90;95.40;;;;;;6300542;28;20465;-63
2022/12/26 11:50:34;;;;;;;11.00;9.93;;;15.10;94.40;;;;;;6300723;28;20469;-63
2022/12/26 11:53:37;;;;;;;9.60;8.70;;;16.50;92.00;;;;;;6295689;28;20480;-63
2022/12/26 11:56:40;;;;;;;10.60;9.60;;;18.00;87.20;;;;;;6300756;28;20472;-64
2022/12/26 11:59:43;;;;;;;9.93;8.97;;;18.90;80.50;;;;;;6300203;28;20477;-64
2022/12/26 12:02:48;;;;;;;10.83;9.70;;;19.30;73.60;;;;;;6300543;28;20465;-63
2022/12/26 12:05:57;;;;;;;9.93;8.90;;;18.90;71.30;;;;;;6300291;28;20465;-65
2022/12/26 12:09:11;;;;;;;9.97;8.97;;;18.60;71.10;;;;;;6299729;28;20831;-64
2022/12/26 12:12:22;;;;;;;10.67;9.73;;;18.60;70.30;;;;;;6300132;28;20542;-64
2022/12/26 12:15:31;;;;;;;10.43;9.50;;;19.10;68.70;;;;;;6299896;28;20478;-63
2022/12/26 12:18:50;;;;;;;10.07;9.17;;;19.50;65.70;;;;;;6299754;28;20700;-63
2022/12/26 12:22:18;;;;;;;10.60;9.60;;;19.50;64.20;;;;;;6300181;28;20465;-63
2022/12/26 12:25:41;;;;;;;10.07;9.07;;;19.00;64.30;;;;;;6287523;28;20488;-63
2022/12/26 12:29:02;;;;;;;10.33;9.30;;;18.50;64.10;;;;;;6299772;28;20484;-63
2022/12/26 12:32:12;;;;;;;11.17;10.07;;;18.30;65.50;;;;;;6299967;28;20756;-63
2022/12/26 12:35:38;;;;;;;10.30;9.20;;;18.20;64.60;;;;;;6299663;28;20786;-63
2022/12/26 12:39:06;;;;;;;9.33;8.43;;;18.50;64.40;;;;;;6299832;28;20825;-63
2022/12/26 12:42:23;;;;;;;11.43;9.33;;;19.10;63.20;;;;;;6300271;28;20234;-63
2022/12/26 12:45:31;;;;;;;9.37;8.47;;;19.80;61.40;;;;;;6299948;28;20227;-63
2022/12/26 12:48:50;;;;;;;11.93;8.67;;;20.50;59.70;;;;;;6299669;28;20227;-63
2022/12/26 12:52:03;;;;;;;8.00;7.20;;;21.50;56.70;;;;;;6298472;28;20242;-63
2022/12/26 12:55:34;;;;;;;8.00;7.10;;;22.50;54.30;;;;;;6294919;28;20476;-63
2022/12/26 12:58:44;;;;;;;8.33;7.10;;;23.80;51.50;;;;;;6299803;28;20245;-63
2022/12/26 13:01:51;;;;;;;15.70;11.20;;;24.50;47.30;;;;;;6299820;28;20230;-63
2022/12/26 13:05:04;;;;;;;8.80;7.53;;;24.70;45.40;;;;;;6299983;28;20246;-63
2022/12/26 13:08:13;;;;;;;9.33;8.20;;;24.20;43.90;;;;;;6300167;28;20325;-63
2022/12/26 13:11:23;;;;;;;8.57;7.67;;;23.10;44.80;;;;;;6300323;28;20242;-63
2022/12/26 13:14:32;;;;;;;9.50;8.60;;;21.90;46.50;;;;;;6299627;28;20227;-63
2022/12/26 13:17:41;;;;;;;12.43;8.37;;;21.20;48.30;;;;;;6298936;28;20561;-63
2022/12/26 13:20:49;;;;;;;11.17;8.70;;;21.00;48.60;;;;;;6299182;28;20230;-63
2022/12/26 13:27:37;;;;;;;11.33;7.90;;;20.00;50.20;;;;;;6247206;28;20299;-63
2022/12/26 13:30:40;;;;;;;12.10;7.57;;;19.50;51.00;;;;;;6299193;28;20246;-63
2022/12/26 13:33:44;;;;;;;8.73;7.17;;;19.00;52.00;;;;;;6299187;28;20480;-62
2022/12/26 13:36:48;;;;;;;8.23;7.43;;;18.50;52.70;;;;;;6298934;28;20473;-61
2022/12/26 13:39:53;;;;;;;7.70;6.80;;;18.40;53.40;;;;;;6299165;28;20461;-62
2022/12/26 13:46:54;;;;;;;7.13;6.50;;;19.10;53.30;;;;;;6299812;28;20232;-63
2022/12/26 13:49:57;;;;;;;8.57;6.57;;;19.40;52.90;;;;;;6299462;28;20541;-62
2022/12/26 13:53:00;;;;;;;8.20;7.40;;;20.60;51.70;;;;;;6300102;28;20680;-63
2022/12/26 13:56:40;;;;;;;9.20;7.10;;;21.50;49.70;;;;;;6300618;28;20264;-64
2022/12/26 14:00:04;;;;;;;8.50;7.27;;;22.10;48.30;;;;;;6298960;28;20238;-64
2022/12/26 14:03:34;;;;;;;11.40;8.03;;;22.20;46.90;;;;;;6302393;28;20769;-64
2022/12/26 14:06:54;;;;;;;9.10;8.20;;;22.30;47.40;;;;;;6297308;28;20231;-64
2022/12/26 14:10:04;;;;;;;7.53;6.63;;;22.10;46.70;;;;;;6303588;28;20211;-64
2022/12/26 14:13:32;;;;;;;9.80;6.57;;;21.60;47.40;;;;;;6303346;28;20230;-63
2022/12/26 14:16:43;;;;;;;10.50;7.07;;;21.10;48.20;;;;;;6303201;28;20234;-63
2022/12/26 14:19:58;;;;;;;12.30;7.17;;;20.40;48.70;;;;;;6303422;28;20325;-64
2022/12/26 14:23:12;;;;;;;13.50;8.00;;;19.60;50.10;;;;;;6303207;28;20296;-64
2022/12/26 14:26:28;;;;;;;10.90;7.87;;;18.70;51.90;;;;;;6302996;28;20223;-64
2022/12/26 14:29:43;;;;;;;9.87;7.80;;;17.80;53.40;;;;;;6302466;28;20235;-64
2022/12/26 14:32:58;;;;;;;11.30;8.70;;;17.00;55.40;;;;;;6302672;28;20783;-64
2022/12/26 14:36:16;;;;;;;10.93;9.50;;;16.20;56.90;;;;;;6302565;28;20492;-63
2022/12/26 14:39:28;;;;;;;10.00;8.27;;;15.60;58.40;;;;;;6302681;28;20474;-64
2022/12/26 14:45:56;;;;;;;9.03;8.13;;;14.30;62.50;;;;;;6304217;28;20566;-64
2022/12/26 14:49:13;;;;;;;7.60;6.50;;;13.80;64.90;;;;;;6305356;28;20626;-64
2022/12/26 14:52:47;;;;;;;9.43;7.57;;;13.30;65.90;;;;;;6305720;28;20484;-63
2022/12/26 14:55:52;;;;;;;8.80;6.33;;;13.00;68.20;;;;;;6229670;28;20875;-63
2022/12/26 14:59:26;;;;;;;6.97;6.23;;;12.70;69.70;;;;;;6303824;28;20484;-62
2022/12/26 15:02:33;;;;;;;7.63;6.93;;;12.40;71.50;;;;;;6302305;28;20469;-62
2022/12/26 15:05:38;;;;;;;8.40;6.60;;;12.20;72.90;;;;;;6302038;28;20477;-63
2022/12/26 15:09:01;;;;;;;8.30;5.73;;;12.00;74.40;;;;;;6301810;28;20480;-63
2022/12/26 15:12:39;;;;;;;6.87;6.13;;;11.70;76.30;;;;;;6301867;28;20481;-63
2022/12/26 15:16:08;;;;;;;8.97;6.70;;;11.50;78.20;;;;;;6301533;28;20492;-63
2022/12/26 15:23:29;;;;;;;11.83;7.00;;;11.10;82.60;;;;;;6312679;27;20551;-63
2022/12/26 15:26:52;;;;;;;10.73;9.03;;;11.00;85.10;;;;;;6296560;28;20473;-63
2022/12/26 15:30:15;;;;;;;13.33;11.43;;;10.80;87.20;;;;;;6271706;28;20477;-63
2022/12/26 15:33:24;;;;;;;8.63;7.50;;;10.60;89.40;;;;;;6271982;28;20466;-62
2022/12/26 15:36:37;;;;;;;7.33;6.03;;;10.50;90.60;;;;;;6272083;28;20470;-64
2022/12/26 15:39:53;;;;;;;9.40;8.40;;;10.40;91.30;;;;;;6271340;28;20463;-63
2022/12/26 15:43:28;;;;;;;9.47;7.50;;;10.20;92.20;;;;;;6246600;28;20474;-63
2022/12/26 15:46:36;;;;;;;24.17;17.77;;;10.10;93.20;;;;;;6246699;28;20471;-63
2022/12/26 15:49:56;;;;;;;26.37;18.60;;;9.90;94.90;;;;;;6246606;28;20473;-63
2022/12/26 15:53:16;;;;;;;20.10;14.00;;;9.80;95.80;;;;;;6246582;28;20947;-63
2022/12/26 15:56:42;;;;;;;19.13;13.03;;;9.70;97.00;;;;;;6246275;28;20478;-63
2022/12/26 16:00:15;;;;;;;51.30;25.03;;;9.50;98.20;;;;;;6246210;28;20483;-64
2022/12/26 16:03:30;;;;;;;51.43;28.20;;;9.40;99.00;;;;;;6246149;28;20482;-63
2022/12/26 16:06:49;;;;;;;9.30;8.30;;;9.30;99.20;;;;;;6245753;28;20963;-63
2022/12/26 16:09:55;;;;;;;11.03;9.90;;;9.20;99.60;;;;;;6243239;28;20474;-63
2022/12/26 16:13:05;;;;;;;13.23;9.57;;;9.20;99.90;;;;;;6247316;28;20435;-63
2022/12/26 16:16:09;;;;;;;12.10;10.60;;;9.10;99.90;;;;;;6268322;28;20435;-63
2022/12/26 16:19:17;;;;;;;11.73;9.47;;;9.10;99.90;;;;;;6245756;28;20463;-63
2022/12/26 16:22:46;;;;;;;12.83;10.73;;;9.00;99.90;;;;;;6245485;28;20475;-62
2022/12/26 16:25:51;;;;;;;12.67;10.47;;;9.00;99.90;;;;;;6245673;28;20973;-63
2022/12/26 16:28:57;;;;;;;12.13;10.40;;;8.90;99.90;;;;;;6245236;28;20781;-63
2022/12/26 16:32:04;;;;;;;41.27;24.03;;;8.80;99.90;;;;;;6241155;28;20986;-63
2022/12/26 16:35:17;;;;;;;76.67;41.27;;;8.70;99.90;;;;;;6229322;28;20606;-63
2022/12/26 16:38:25;;;;;;;43.43;26.93;;;8.70;99.90;;;;;;6228939;28;20483;-63
2022/12/26 16:41:30;;;;;;;29.20;20.73;;;8.50;99.90;;;;;;6229273;28;20488;-63
2022/12/26 16:44:38;;;;;;;17.53;12.73;;;8.50;99.90;;;;;;6228916;28;20480;-63
2022/12/26 16:47:43;;;;;;;13.10;11.70;;;8.50;99.90;;;;;;6228889;28;20490;-64
2022/12/26 16:50:49;;;;;;;12.30;11.20;;;8.40;99.90;;;;;;6228592;28;20479;-63
2022/12/26 16:53:53;;;;;;;13.60;12.50;;;8.40;99.90;;;;;;6228735;28;20483;-63
2022/12/26 16:57:05;;;;;;;13.60;12.30;;;8.30;99.90;;;;;;6228455;28;20482;-62
2022/12/26 17:00:17;;;;;;;12.83;11.50;;;8.30;99.90;;;;;;6228750;28;20943;-63
2022/12/26 17:03:29;;;;;;;17.03;13.23;;;8.30;99.90;;;;;;6228413;28;20794;-62
2022/12/26 17:06:35;;;;;;;16.20;14.57;;;8.10;99.90;;;;;;6228585;28;20476;-63
2022/12/26 17:09:43;;;;;;;18.07;16.20;;;8.00;99.90;;;;;;6228049;28;20488;-63
2022/12/26 17:12:47;;;;;;;16.70;15.20;;;7.90;99.90;;;;;;6224063;28;20567;-63
2022/12/26 17:15:55;;;;;;;11.77;10.70;;;7.80;99.90;;;;;;6228420;28;20975;-63
2022/12/26 17:19:10;;;;;;;11.83;10.63;;;7.80;99.90;;;;;;6228114;28;20464;-63
2022/12/26 17:22:27;;;;;;;14.67;11.20;;;7.80;99.90;;;;;;6227740;28;20479;-63
2022/12/26 17:25:32;;;;;;;19.23;12.97;;;7.70;99.90;;;;;;6228270;28;20480;-63
2022/12/26 17:28:37;;;;;;;25.53;15.10;;;7.80;99.90;;;;;;6227281;28;20930;-63
2022/12/26 17:31:45;;;;;;;15.00;10.63;;;7.90;99.90;;;;;;6227909;28;20486;-63
2022/12/26 17:34:48;;;;;;;11.20;10.10;;;7.90;99.90;;;;;;6227843;28;20471;-63
2022/12/26 17:37:56;;;;;;;18.00;14.83;;;7.90;99.90;;;;;;6227902;28;20480;-62
2022/12/26 17:41:04;;;;;;;22.83;17.93;;;8.00;99.90;;;;;;6227963;28;20483;-63
2022/12/26 17:44:33;;;;;;;16.10;12.60;;;8.00;99.90;;;;;;6226679;28;20475;-63
2022/12/26 17:47:38;;;;;;;11.17;9.93;;;7.90;99.90;;;;;;6227651;28;20479;-63
2022/12/26 17:50:43;;;;;;;24.43;14.90;;;7.80;99.90;;;;;;6227458;28;20487;-63
2022/12/26 17:53:49;;;;;;;32.83;19.30;;;7.80;99.90;;;;;;6227234;28;20482;-63
2022/12/26 17:56:53;;;;;;;41.33;21.40;;;7.70;99.90;;;;;;6227262;28;21011;-63
2022/12/26 17:59:57;;;;;;;15.60;10.50;;;7.60;99.90;;;;;;6227173;28;20834;-63
2022/12/26 18:03:01;;;;;;;19.47;12.50;;;7.70;99.90;;;;;;6227803;28;20494;-63
2022/12/26 18:06:05;;;;;;;30.23;16.13;;;7.70;99.90;;;;;;6227318;28;20529;-63
2022/12/26 18:09:19;;;;;;;31.53;15.60;;;7.70;99.90;;;;;;6227091;28;20767;-63
2022/12/26 18:12:23;;;;;;;20.07;11.60;;;7.80;99.90;;;;;;6218507;28;20476;-63
2022/12/26 18:15:27;;;;;;;8.80;7.70;;;7.70;99.90;;;;;;6226982;28;20475;-63
2022/12/26 18:18:36;;;;;;;10.73;8.00;;;7.80;99.90;;;;;;6226678;28;20472;-64
2022/12/26 18:21:39;;;;;;;10.70;6.47;;;7.80;99.90;;;;;;6226594;28;20495;-63
2022/12/26 18:24:42;;;;;;;7.20;6.07;;;7.70;99.90;;;;;;6226485;28;20468;-63
2022/12/26 18:27:46;;;;;;;6.70;5.50;;;7.80;99.90;;;;;;6226154;28;20483;-63
2022/12/26 18:30:50;;;;;;;5.50;4.93;;;7.80;99.90;;;;;;6226165;28;20479;-61
2022/12/26 18:33:56;;;;;;;6.53;4.57;;;7.80;99.90;;;;;;6225045;28;20467;-60
2022/12/26 18:36:59;;;;;;;5.57;5.07;;;7.90;99.90;;;;;;6226221;28;20443;-63
2022/12/26 18:40:02;;;;;;;5.00;4.60;;;7.90;99.90;;;;;;6227943;28;20436;-64
2022/12/26 18:43:08;;;;;;;6.73;5.97;;;7.90;99.90;;;;;;6250545;28;20475;-63